• Join FlightAware (Why Join?)
  • Login
  • US Flag 
02:11PM EST


 

Airport Tracker/Info


-or-


 

Live Flight TrackerFlight Track Log ✈ GJS3618 ✈ 05-May-2013 ✈ KDEN - KOKC

Flight Track Log - Related Links

Times and Time Zones

All times are in EDT time to prevent confusion due to time zone crossing. See the GJS3618 flight status page for this flight to view local times or setup timezone preferences in your user account.

Time Position Orientation Groundspeed Altitude Reporting Facility
EDT Latitude Longitude Course Direction KTS MPH feet Rate Location/Type
12:11PM 39.7833 -104.6000 108° East 210 242 8,000  Level Denver TRACON
12:12PM 39.7742 -104.5922 147° Southeast 218 251 8,500 1,500 Climbing Denver Center
12:13PM 39.7636 -104.4967 98° East 261 300 10,000 1,260 Climbing Denver Center
12:14PM 39.5971 -104.2087 108° East  Level Estimated
12:14PM 39.7686 -104.3800 87° East 320 368 11,200  Level Denver Center
12:15PM 39.5307 -104.0932 113° Southeast  Level Estimated
12:15PM 39.7361 -104.2592 109° East 361 415 12,900  Level Denver Center
12:16PM 39.4642 -103.9779 110° East  Level Estimated
12:16PM 39.6936 -104.1228 112° Southeast 382 440 15,000  Level Denver Center
12:17PM 39.3992 -103.8656 108° East  Level Estimated
12:17PM 39.6508 -103.9908 113° Southeast 397 457 17,200  Level Denver Center
12:18PM 39.6075 -103.8481 111° Southeast 396 456 18,900 1,440 Climbing Denver Center
12:19PM 39.5711 -103.7222 111° Southeast 403 464 20,200 1,500 Climbing Denver Center
12:20PM 39.5283 -103.5542 108° East 417 480 22,000 1,560 Climbing Denver Center
12:21PM 39.4894 -103.4053 109° East 431 496 23,500 1,380 Climbing Denver Center
12:22PM 39.4497 -103.2550 109° East 437 503 24,900 1,200 Climbing Denver Center
12:23PM 39.4083 -103.1022 109° East 445 512 26,100 1,140 Climbing Denver Center
12:24PM 39.3675 -102.9486 109° East 448 516 27,300 1,020 Climbing Denver Center
12:25PM 39.3253 -102.7908 109° East 460 529 28,300 960 Climbing Denver Center
12:26PM 39.2814 -102.6275 109° East 469 540 29,300 960 Climbing Denver Center
12:27PM 39.2308 -102.4483 110° East 476 548 30,400 840 Climbing Denver Center
12:28PM 39.1878 -102.2908 109° East 486 559 31,100 840 Climbing Denver Center
12:29PM 39.1369 -102.1033 109° East 495 570 32,200 960 Climbing Denver Center
12:30PM 39.0650 -101.9650 124° Southeast 488 562 33,200 960 Climbing Denver Center
12:31PM 38.9511 -101.8383 139° Southeast 483 556 34,300 900 Climbing Denver Center
12:32PM 38.8531 -101.7308 139° Southeast 484 557 35,100 780 Climbing Denver Center
12:33PM 38.7378 -101.6050 140° Southeast 488 562 36,000 780 Climbing Denver Center
12:34PM 38.6386 -101.4967 140° Southeast 490 564 36,800 780 Climbing Denver Center
12:35PM 38.5233 -101.3719 140° Southeast 486 559 37,700 780 Climbing Denver Center
12:36PM 38.4261 -101.2678 140° Southeast 479 551 38,500 600 Climbing Denver Center
12:37PM 38.3322 -101.1578 137° Southeast 478 550 39,000 240 Climbing Denver Center
12:38PM 38.2278 -101.0247 135° Southeast 476 548 39,000  Level Denver Center
12:39PM 38.1375 -100.9122 136° Southeast 473 544 39,000  Level Denver Center
12:40PM 38.0631 -100.8186 135° Southeast 471 542 39,000  Level Kansas City Center
12:41PM 37.9744 -100.7075 135° Southeast 466 536 39,000  Level Kansas City Center
12:42PM 37.8858 -100.5975 136° Southeast 464 534 39,000  Level Kansas City Center
12:43PM 37.7822 -100.4703 136° Southeast 461 531 39,000  Level Kansas City Center
12:44PM 37.6942 -100.3611 136° Southeast 460 529 39,000  Level Kansas City Center
12:45PM 37.5919 -100.2353 136° Southeast 458 527 39,000  Level Kansas City Center
12:46PM 37.5039 -100.1289 136° Southeast 457 526 39,000  Level Kansas City Center
12:47PM 37.4017 -100.0036 136° Southeast 458 527 39,000  Level Kansas City Center
12:48PM 37.3133 -99.8961 136° Southeast 460 529 39,000  Level Kansas City Center
12:49PM 37.2244 -99.7897 136° Southeast 461 531 39,000  Level Kansas City Center
12:51PM 37.1208 -99.6647 136° Southeast 461 531 39,000  Level Kansas City Center
12:52PM 37.0306 -99.5586 137° Southeast 463 533 39,000  Level Kansas City Center
12:53PM 36.9264 -99.4339 136° Southeast 464 534 39,000  Level Kansas City Center
12:54PM 36.8472 -99.3394 136° Southeast 463 533 39,000  Level Kansas City Center
12:55PM 36.7325 -99.2028 136° Southeast 465 535 39,000 -120 Level Kansas City Center
12:56PM 36.6433 -99.0961 136° Southeast 465 535 38,800 -1,200 Descending Kansas City Center
12:57PM 36.5472 -98.9847 137° Southeast 465 535 36,600 -2,280 Descending Kansas City Center
12:58PM 36.4469 -98.8669 137° Southeast 474 545 34,100 -2,460 Descending Kansas City Center
12:59PM 36.3528 -98.7567 137° Southeast 471 542 31,600 -2,460 Descending Kansas City Center
01:00PM 36.2606 -98.6494 137° Southeast 460 529 29,100 -2,700 Descending Kansas City Center
01:01PM 36.1531 -98.5247 137° Southeast 446 513 26,100 -2,700 Descending Kansas City Center
01:02PM 36.0664 -98.4242 137° Southeast 433 498 23,600 -2,520 Descending Kansas City Center
01:03PM 35.9831 -98.3275 137° Southeast 418 481 20,900 -2,760 Descending Kansas City Center
01:04PM 35.8997 -98.2331 137° Southeast 410 472 17,900 -3,000 Descending Kansas City Center
01:04PM 35.8686 -98.1972 137° Southeast 406 467 16,900 -2,700 Descending Fort Worth Center
01:05PM 35.8336 -98.1533 135° Southeast 411 473 15,700 -3,000 Descending Fort Worth Center
01:05PM 35.7858 -98.1019 139° Southeast 402 463 13,900 -3,000 Descending Fort Worth Center
01:06PM 35.7528 -98.0606 135° Southeast 406 467 12,700 -2,520 Descending Fort Worth Center
01:06PM 35.7175 -98.0169 135° Southeast 387 445 11,600 -1,740 Descending Fort Worth Center
01:07PM 35.6739 -97.9808 146° Southeast 395 455 11,000 -1,140 Descending Fort Worth Center
01:07PM 35.6364 -97.9500 146° Southeast 327 376 10,500 -1,200 Descending Fort Worth Center
01:08PM 35.6011 -97.9217 147° Southeast 355 409 9,800 -1,800 Descending Fort Worth Center
01:08PM 35.5597 -97.8881 147° Southeast 298 343 8,700 -1,740 Descending Fort Worth Center
01:09PM 35.5283 -97.8625 146° Southeast 325 374 8,100 -1,500 Descending Fort Worth Center
01:09PM 35.4911 -97.8342 148° Southeast 294 338 7,200 -1,500 Descending Fort Worth Center
01:10PM 35.4597 -97.8111 149° Southeast 308 354 6,600 -1,500 Descending Fort Worth Center
01:10PM 35.4389 -97.7931 145° Southeast 281 323 6,000 -720 Descending Fort Worth Center
01:11PM 35.3994 -97.7625 148° Southeast 285 328 5,900 -420 Descending Fort Worth Center
01:11PM 35.3828 -97.7547 159° South 232 267 5,600 -1,020 Descending Fort Worth Center
01:12PM 35.3453 -97.7214 144° Southeast 259 298 4,900 -1,140 Descending Fort Worth Center
01:12PM 35.3225 -97.7164 170° South 217 250 4,500 -1,020 Descending Fort Worth Center
01:13PM 35.2869 -97.7008 160° South 230 265 3,900 -900 Descending Fort Worth Center
01:13PM 35.2703 -97.6831 139° Southeast 196 226 3,500 -900 Descending Fort Worth Center
01:14PM 35.2767 -97.6525 76° East 162 186 3,000 -720 Descending Fort Worth Center
01:14PM 35.3017 -97.6400 22° Northeast 169 194 2,800 -540 Descending Fort Worth Center